sensor_id;sensor_type;location;lat;lon;timestamp;P1;durP1;ratioP1;P2;durP2;ratioP2
15155;SDS011;7678;50.058;8.306;2023-06-10T00:01:56;11.40;;;5.60;;
15155;SDS011;7678;50.058;8.306;2023-06-10T00:04:45;8.60;;;5.93;;
15155;SDS011;7678;50.058;8.306;2023-06-10T00:07:34;6.50;;;5.73;;
15155;SDS011;7678;50.058;8.306;2023-06-10T00:10:16;7.57;;;5.93;;
15155;SDS011;7678;50.058;8.306;2023-06-10T00:12:55;7.07;;;5.60;;
15155;SDS011;7678;50.058;8.306;2023-06-10T00:15:47;7.77;;;6.37;;
15155;SDS011;7678;50.058;8.306;2023-06-10T00:18:28;6.07;;;5.47;;
15155;SDS011;7678;50.058;8.306;2023-06-10T00:21:13;8.30;;;6.20;;
15155;SDS011;7678;50.058;8.306;2023-06-10T00:23:47;6.47;;;5.80;;
15155;SDS011;7678;50.058;8.306;2023-06-10T00:29:28;9.27;;;5.63;;
15155;SDS011;7678;50.058;8.306;2023-06-10T00:31:58;6.60;;;5.70;;
15155;SDS011;7678;50.058;8.306;2023-06-10T00:34:28;8.23;;;6.03;;
15155;SDS011;7678;50.058;8.306;2023-06-10T00:37:20;6.57;;;5.17;;
15155;SDS011;7678;50.058;8.306;2023-06-10T00:39:52;5.63;;;5.13;;
15155;SDS011;7678;50.058;8.306;2023-06-10T00:42:39;8.13;;;5.60;;
15155;SDS011;7678;50.058;8.306;2023-06-10T00:45:09;6.73;;;5.43;;
15155;SDS011;7678;50.058;8.306;2023-06-10T00:47:39;5.93;;;5.33;;
15155;SDS011;7678;50.058;8.306;2023-06-10T00:50:16;6.80;;;5.47;;
15155;SDS011;7678;50.058;8.306;2023-06-10T00:52:50;6.43;;;5.00;;
15155;SDS011;7678;50.058;8.306;2023-06-10T00:55:28;7.00;;;5.23;;
15155;SDS011;7678;50.058;8.306;2023-06-10T00:58:28;6.87;;;5.87;;
15155;SDS011;7678;50.058;8.306;2023-06-10T01:01:04;14.93;;;5.70;;
15155;SDS011;7678;50.058;8.306;2023-06-10T01:03:53;8.70;;;5.80;;
15155;SDS011;7678;50.058;8.306;2023-06-10T01:06:41;7.43;;;5.40;;
15155;SDS011;7678;50.058;8.306;2023-06-10T01:09:38;6.13;;;5.30;;
15155;SDS011;7678;50.058;8.306;2023-06-10T01:12:43;5.63;;;4.97;;
15155;SDS011;7678;50.058;8.306;2023-06-10T01:15:32;7.13;;;5.33;;
15155;SDS011;7678;50.058;8.306;2023-06-10T01:18:17;6.30;;;5.27;;
15155;SDS011;7678;50.058;8.306;2023-06-10T01:20:49;8.43;;;5.30;;
15155;SDS011;7678;50.058;8.306;2023-06-10T01:23:29;5.80;;;5.20;;
15155;SDS011;7678;50.058;8.306;2023-06-10T01:26:06;8.37;;;4.90;;
15155;SDS011;7678;50.058;8.306;2023-06-10T01:28:44;6.93;;;5.27;;
15155;SDS011;7678;50.058;8.306;2023-06-10T01:31:31;6.17;;;4.77;;
15155;SDS011;7678;50.058;8.306;2023-06-10T01:34:23;6.50;;;5.43;;
15155;SDS011;7678;50.058;8.306;2023-06-10T01:37:13;7.10;;;5.27;;
15155;SDS011;7678;50.058;8.306;2023-06-10T01:39:51;6.17;;;5.13;;
15155;SDS011;7678;50.058;8.306;2023-06-10T01:42:29;5.23;;;4.73;;
15155;SDS011;7678;50.058;8.306;2023-06-10T01:45:00;5.10;;;4.67;;
15155;SDS011;7678;50.058;8.306;2023-06-10T01:47:59;6.20;;;4.70;;
15155;SDS011;7678;50.058;8.306;2023-06-10T01:50:31;6.60;;;4.87;;
15155;SDS011;7678;50.058;8.306;2023-06-10T01:53:06;5.33;;;4.83;;
15155;SDS011;7678;50.058;8.306;2023-06-10T01:55:39;6.37;;;4.83;;
15155;SDS011;7678;50.058;8.306;2023-06-10T01:58:12;7.33;;;5.13;;
15155;SDS011;7678;50.058;8.306;2023-06-10T02:00:43;5.20;;;4.70;;
15155;SDS011;7678;50.058;8.306;2023-06-10T02:03:13;5.63;;;4.87;;
15155;SDS011;7678;50.058;8.306;2023-06-10T02:05:44;6.60;;;4.93;;
15155;SDS011;7678;50.058;8.306;2023-06-10T02:08:18;6.30;;;5.27;;
15155;SDS011;7678;50.058;8.306;2023-06-10T02:11:02;5.53;;;5.03;;
15155;SDS011;7678;50.058;8.306;2023-06-10T02:13:44;7.37;;;5.00;;
15155;SDS011;7678;50.058;8.306;2023-06-10T02:16:21;8.90;;;5.40;;
15155;SDS011;7678;50.058;8.306;2023-06-10T02:19:00;6.83;;;4.90;;
15155;SDS011;7678;50.058;8.306;2023-06-10T02:21:36;5.27;;;4.53;;
15155;SDS011;7678;50.058;8.306;2023-06-10T02:24:06;6.33;;;4.47;;
15155;SDS011;7678;50.058;8.306;2023-06-10T02:26:48;7.03;;;5.07;;
15155;SDS011;7678;50.058;8.306;2023-06-10T02:29:27;6.77;;;5.20;;
15155;SDS011;7678;50.058;8.306;2023-06-10T02:32:02;5.40;;;4.60;;
15155;SDS011;7678;50.058;8.306;2023-06-10T02:34:46;5.80;;;4.73;;
15155;SDS011;7678;50.058;8.306;2023-06-10T02:37:25;6.60;;;5.03;;
15155;SDS011;7678;50.058;8.306;2023-06-10T02:39:59;6.47;;;4.93;;
15155;SDS011;7678;50.058;8.306;2023-06-10T02:42:49;5.50;;;4.67;;
15155;SDS011;7678;50.058;8.306;2023-06-10T02:45:19;5.60;;;4.97;;
15155;SDS011;7678;50.058;8.306;2023-06-10T02:47:55;6.87;;;5.10;;
15155;SDS011;7678;50.058;8.306;2023-06-10T02:50:36;6.27;;;4.90;;
15155;SDS011;7678;50.058;8.306;2023-06-10T02:53:08;6.20;;;4.90;;
15155;SDS011;7678;50.058;8.306;2023-06-10T02:55:49;5.03;;;4.50;;
15155;SDS011;7678;50.058;8.306;2023-06-10T02:58:40;6.40;;;4.90;;
15155;SDS011;7678;50.058;8.306;2023-06-10T03:01:33;6.77;;;5.27;;
15155;SDS011;7678;50.058;8.306;2023-06-10T03:04:29;7.43;;;4.77;;
15155;SDS011;7678;50.058;8.306;2023-06-10T03:07:35;5.13;;;4.60;;
15155;SDS011;7678;50.058;8.306;2023-06-10T03:10:12;6.30;;;4.43;;
15155;SDS011;7678;50.058;8.306;2023-06-10T03:13:05;6.43;;;4.83;;
15155;SDS011;7678;50.058;8.306;2023-06-10T03:16:02;6.33;;;4.80;;
15155;SDS011;7678;50.058;8.306;2023-06-10T03:19:00;5.63;;;4.77;;
15155;SDS011;7678;50.058;8.306;2023-06-10T03:21:43;4.90;;;4.40;;
15155;SDS011;7678;50.058;8.306;2023-06-10T03:24:40;6.50;;;4.67;;
15155;SDS011;7678;50.058;8.306;2023-06-10T03:27:19;7.67;;;5.10;;
15155;SDS011;7678;50.058;8.306;2023-06-10T03:29:50;6.40;;;4.97;;
15155;SDS011;7678;50.058;8.306;2023-06-10T03:32:27;7.03;;;4.63;;
15155;SDS011;7678;50.058;8.306;2023-06-10T03:35:17;6.43;;;4.80;;
15155;SDS011;7678;50.058;8.306;2023-06-10T03:37:49;7.50;;;5.17;;
15155;SDS011;7678;50.058;8.306;2023-06-10T03:40:24;5.13;;;4.63;;
15155;SDS011;7678;50.058;8.306;2023-06-10T03:43:02;6.60;;;5.00;;
15155;SDS011;7678;50.058;8.306;2023-06-10T03:45:37;5.87;;;4.50;;
15155;SDS011;7678;50.058;8.306;2023-06-10T03:48:14;7.43;;;4.97;;
15155;SDS011;7678;50.058;8.306;2023-06-10T03:50:44;5.73;;;4.57;;
15155;SDS011;7678;50.058;8.306;2023-06-10T03:53:14;5.40;;;4.73;;
15155;SDS011;7678;50.058;8.306;2023-06-10T03:55:49;7.13;;;5.00;;
15155;SDS011;7678;50.058;8.306;2023-06-10T03:58:31;5.87;;;4.77;;
15155;SDS011;7678;50.058;8.306;2023-06-10T04:01:12;5.67;;;4.93;;
15155;SDS011;7678;50.058;8.306;2023-06-10T04:04:02;4.73;;;4.27;;
15155;SDS011;7678;50.058;8.306;2023-06-10T04:06:39;5.63;;;4.23;;
15155;SDS011;7678;50.058;8.306;2023-06-10T04:09:16;5.13;;;4.57;;
15155;SDS011;7678;50.058;8.306;2023-06-10T04:12:00;5.63;;;4.87;;
15155;SDS011;7678;50.058;8.306;2023-06-10T04:14:43;5.73;;;4.93;;
15155;SDS011;7678;50.058;8.306;2023-06-10T04:17:15;5.57;;;4.87;;
15155;SDS011;7678;50.058;8.306;2023-06-10T04:19:54;5.90;;;4.77;;
15155;SDS011;7678;50.058;8.306;2023-06-10T04:22:25;5.63;;;4.93;;
15155;SDS011;7678;50.058;8.306;2023-06-10T04:25:02;5.80;;;4.50;;
15155;SDS011;7678;50.058;8.306;2023-06-10T04:27:40;6.73;;;4.97;;
15155;SDS011;7678;50.058;8.306;2023-06-10T04:30:21;7.20;;;4.70;;
15155;SDS011;7678;50.058;8.306;2023-06-10T04:32:55;5.80;;;4.70;;
15155;SDS011;7678;50.058;8.306;2023-06-10T04:35:28;8.73;;;5.27;;
15155;SDS011;7678;50.058;8.306;2023-06-10T04:38:04;7.93;;;5.37;;
15155;SDS011;7678;50.058;8.306;2023-06-10T04:40:45;5.57;;;4.83;;
15155;SDS011;7678;50.058;8.306;2023-06-10T04:43:19;6.30;;;4.70;;
15155;SDS011;7678;50.058;8.306;2023-06-10T04:45:49;7.50;;;4.60;;
15155;SDS011;7678;50.058;8.306;2023-06-10T04:48:19;6.20;;;4.17;;
15155;SDS011;7678;50.058;8.306;2023-06-10T04:53:40;6.53;;;4.83;;
15155;SDS011;7678;50.058;8.306;2023-06-10T04:56:26;5.90;;;4.80;;
15155;SDS011;7678;50.058;8.306;2023-06-10T04:58:59;7.03;;;4.73;;
15155;SDS011;7678;50.058;8.306;2023-06-10T05:01:29;5.03;;;4.43;;
15155;SDS011;7678;50.058;8.306;2023-06-10T05:04:08;5.87;;;4.97;;
15155;SDS011;7678;50.058;8.306;2023-06-10T05:06:39;12.03;;;4.60;;
15155;SDS011;7678;50.058;8.306;2023-06-10T05:09:12;6.00;;;4.50;;
15155;SDS011;7678;50.058;8.306;2023-06-10T05:11:52;5.70;;;4.60;;
15155;SDS011;7678;50.058;8.306;2023-06-10T05:14:42;5.43;;;4.17;;
15155;SDS011;7678;50.058;8.306;2023-06-10T05:17:11;7.73;;;4.90;;
15155;SDS011;7678;50.058;8.306;2023-06-10T05:19:43;5.97;;;4.83;;
15155;SDS011;7678;50.058;8.306;2023-06-10T05:22:23;5.83;;;4.60;;
15155;SDS011;7678;50.058;8.306;2023-06-10T05:24:55;4.87;;;4.43;;
15155;SDS011;7678;50.058;8.306;2023-06-10T05:27:28;5.77;;;4.97;;
15155;SDS011;7678;50.058;8.306;2023-06-10T05:29:58;6.27;;;4.67;;
15155;SDS011;7678;50.058;8.306;2023-06-10T05:32:30;5.60;;;4.83;;
15155;SDS011;7678;50.058;8.306;2023-06-10T05:35:12;6.73;;;4.77;;
15155;SDS011;7678;50.058;8.306;2023-06-10T05:38:06;5.07;;;4.47;;
15155;SDS011;7678;50.058;8.306;2023-06-10T05:40:37;7.60;;;4.90;;
15155;SDS011;7678;50.058;8.306;2023-06-10T05:43:07;5.23;;;4.73;;
15155;SDS011;7678;50.058;8.306;2023-06-10T05:45:37;6.43;;;5.00;;
15155;SDS011;7678;50.058;8.306;2023-06-10T05:48:08;7.30;;;4.93;;
15155;SDS011;7678;50.058;8.306;2023-06-10T05:50:38;7.93;;;4.67;;
15155;SDS011;7678;50.058;8.306;2023-06-10T05:53:11;5.50;;;5.00;;
15155;SDS011;7678;50.058;8.306;2023-06-10T05:55:43;6.53;;;5.03;;
15155;SDS011;7678;50.058;8.306;2023-06-10T05:58:14;5.40;;;4.90;;
15155;SDS011;7678;50.058;8.306;2023-06-10T06:00:43;7.47;;;4.93;;
15155;SDS011;7678;50.058;8.306;2023-06-10T06:03:14;6.13;;;4.57;;
15155;SDS011;7678;50.058;8.306;2023-06-10T06:05:43;6.00;;;4.67;;
15155;SDS011;7678;50.058;8.306;2023-06-10T06:08:17;5.80;;;4.47;;
15155;SDS011;7678;50.058;8.306;2023-06-10T06:10:46;5.77;;;4.83;;
15155;SDS011;7678;50.058;8.306;2023-06-10T06:13:15;6.30;;;4.87;;
15155;SDS011;7678;50.058;8.306;2023-06-10T06:15:45;6.30;;;5.17;;
15155;SDS011;7678;50.058;8.306;2023-06-10T06:18:13;7.37;;;5.00;;
15155;SDS011;7678;50.058;8.306;2023-06-10T06:20:42;6.70;;;4.40;;
15155;SDS011;7678;50.058;8.306;2023-06-10T06:23:12;7.10;;;4.50;;
15155;SDS011;7678;50.058;8.306;2023-06-10T06:25:42;6.10;;;4.90;;
15155;SDS011;7678;50.058;8.306;2023-06-10T06:28:11;8.07;;;5.20;;
15155;SDS011;7678;50.058;8.306;2023-06-10T06:30:45;6.70;;;4.80;;
15155;SDS011;7678;50.058;8.306;2023-06-10T06:33:14;5.20;;;4.47;;
15155;SDS011;7678;50.058;8.306;2023-06-10T06:35:42;7.67;;;4.70;;
15155;SDS011;7678;50.058;8.306;2023-06-10T06:38:16;6.63;;;4.67;;
15155;SDS011;7678;50.058;8.306;2023-06-10T06:40:46;6.17;;;4.97;;
15155;SDS011;7678;50.058;8.306;2023-06-10T06:43:15;9.20;;;5.07;;
15155;SDS011;7678;50.058;8.306;2023-06-10T06:45:44;6.07;;;5.03;;
15155;SDS011;7678;50.058;8.306;2023-06-10T06:48:13;6.33;;;5.23;;
15155;SDS011;7678;50.058;8.306;2023-06-10T06:50:43;5.10;;;4.70;;
15155;SDS011;7678;50.058;8.306;2023-06-10T06:53:13;5.27;;;4.77;;
15155;SDS011;7678;50.058;8.306;2023-06-10T06:55:48;5.40;;;4.67;;
15155;SDS011;7678;50.058;8.306;2023-06-10T06:58:18;6.27;;;4.83;;
15155;SDS011;7678;50.058;8.306;2023-06-10T07:00:47;5.20;;;4.67;;
15155;SDS011;7678;50.058;8.306;2023-06-10T07:03:15;7.93;;;5.00;;
15155;SDS011;7678;50.058;8.306;2023-06-10T07:05:43;7.83;;;4.80;;
15155;SDS011;7678;50.058;8.306;2023-06-10T07:08:16;6.80;;;5.03;;
15155;SDS011;7678;50.058;8.306;2023-06-10T07:10:50;7.43;;;5.20;;
15155;SDS011;7678;50.058;8.306;2023-06-10T07:13:21;5.37;;;4.97;;
15155;SDS011;7678;50.058;8.306;2023-06-10T07:15:49;9.83;;;4.70;;
15155;SDS011;7678;50.058;8.306;2023-06-10T07:18:18;5.77;;;4.50;;
15155;SDS011;7678;50.058;8.306;2023-06-10T07:20:48;6.37;;;5.07;;
15155;SDS011;7678;50.058;8.306;2023-06-10T07:23:16;6.17;;;4.90;;
15155;SDS011;7678;50.058;8.306;2023-06-10T07:25:45;9.73;;;5.33;;
15155;SDS011;7678;50.058;8.306;2023-06-10T07:28:15;5.53;;;4.87;;
15155;SDS011;7678;50.058;8.306;2023-06-10T07:30:44;7.27;;;5.20;;
15155;SDS011;7678;50.058;8.306;2023-06-10T07:33:12;6.20;;;5.20;;
15155;SDS011;7678;50.058;8.306;2023-06-10T07:35:42;5.93;;;5.07;;
15155;SDS011;7678;50.058;8.306;2023-06-10T07:38:17;6.67;;;5.13;;
15155;SDS011;7678;50.058;8.306;2023-06-10T07:40:47;8.43;;;5.00;;
15155;SDS011;7678;50.058;8.306;2023-06-10T07:43:16;9.57;;;4.97;;
15155;SDS011;7678;50.058;8.306;2023-06-10T07:45:44;8.10;;;5.00;;
15155;SDS011;7678;50.058;8.306;2023-06-10T07:48:17;5.33;;;4.83;;
15155;SDS011;7678;50.058;8.306;2023-06-10T07:50:45;8.50;;;5.20;;
15155;SDS011;7678;50.058;8.306;2023-06-10T07:53:13;6.90;;;5.10;;
15155;SDS011;7678;50.058;8.306;2023-06-10T07:55:41;6.53;;;5.30;;
15155;SDS011;7678;50.058;8.306;2023-06-10T07:58:09;7.20;;;5.40;;
15155;SDS011;7678;50.058;8.306;2023-06-10T08:00:39;5.93;;;5.20;;
15155;SDS011;7678;50.058;8.306;2023-06-10T08:03:07;9.27;;;5.27;;
15155;SDS011;7678;50.058;8.306;2023-06-10T08:05:35;8.23;;;5.50;;
15155;SDS011;7678;50.058;8.306;2023-06-10T08:08:03;8.17;;;5.10;;
15155;SDS011;7678;50.058;8.306;2023-06-10T08:10:31;8.67;;;5.63;;
15155;SDS011;7678;50.058;8.306;2023-06-10T08:13:00;6.07;;;5.30;;
15155;SDS011;7678;50.058;8.306;2023-06-10T08:15:28;5.23;;;4.73;;
15155;SDS011;7678;50.058;8.306;2023-06-10T08:17:57;7.70;;;5.87;;
15155;SDS011;7678;50.058;8.306;2023-06-10T08:20:26;8.20;;;5.50;;
15155;SDS011;7678;50.058;8.306;2023-06-10T08:22:53;9.50;;;5.40;;
15155;SDS011;7678;50.058;8.306;2023-06-10T08:25:24;7.37;;;5.30;;
15155;SDS011;7678;50.058;8.306;2023-06-10T08:27:52;6.17;;;5.33;;
15155;SDS011;7678;50.058;8.306;2023-06-10T08:30:22;6.10;;;4.77;;
15155;SDS011;7678;50.058;8.306;2023-06-10T08:32:50;8.83;;;5.47;;
15155;SDS011;7678;50.058;8.306;2023-06-10T08:35:20;6.80;;;4.90;;
15155;SDS011;7678;50.058;8.306;2023-06-10T08:37:51;9.23;;;5.53;;
15155;SDS011;7678;50.058;8.306;2023-06-10T08:40:19;6.23;;;5.10;;
15155;SDS011;7678;50.058;8.306;2023-06-10T08:42:58;5.93;;;5.23;;
15155;SDS011;7678;50.058;8.306;2023-06-10T08:45:30;6.13;;;5.30;;
15155;SDS011;7678;50.058;8.306;2023-06-10T08:48:02;8.07;;;5.67;;
15155;SDS011;7678;50.058;8.306;2023-06-10T08:50:35;7.87;;;5.23;;
15155;SDS011;7678;50.058;8.306;2023-06-10T08:53:04;7.13;;;4.87;;
15155;SDS011;7678;50.058;8.306;2023-06-10T08:55:35;8.20;;;5.30;;
15155;SDS011;7678;50.058;8.306;2023-06-10T08:58:05;7.53;;;5.37;;
15155;SDS011;7678;50.058;8.306;2023-06-10T09:00:36;7.40;;;5.30;;
15155;SDS011;7678;50.058;8.306;2023-06-10T09:03:05;8.23;;;5.40;;
15155;SDS011;7678;50.058;8.306;2023-06-10T09:05:37;5.57;;;5.07;;
15155;SDS011;7678;50.058;8.306;2023-06-10T09:08:06;6.47;;;4.90;;
15155;SDS011;7678;50.058;8.306;2023-06-10T09:10:35;6.73;;;5.00;;
15155;SDS011;7678;50.058;8.306;2023-06-10T09:13:03;7.03;;;5.07;;
15155;SDS011;7678;50.058;8.306;2023-06-10T09:15:32;7.27;;;5.07;;
15155;SDS011;7678;50.058;8.306;2023-06-10T09:18:01;6.43;;;5.00;;
15155;SDS011;7678;50.058;8.306;2023-06-10T09:20:31;5.33;;;4.70;;
15155;SDS011;7678;50.058;8.306;2023-06-10T09:23:02;7.67;;;4.83;;
15155;SDS011;7678;50.058;8.306;2023-06-10T09:25:34;8.33;;;4.93;;
15155;SDS011;7678;50.058;8.306;2023-06-10T09:28:08;7.20;;;5.10;;
15155;SDS011;7678;50.058;8.306;2023-06-10T09:30:41;9.27;;;6.50;;
15155;SDS011;7678;50.058;8.306;2023-06-10T09:33:09;8.37;;;4.90;;
15155;SDS011;7678;50.058;8.306;2023-06-10T09:35:46;6.00;;;4.87;;
15155;SDS011;7678;50.058;8.306;2023-06-10T09:38:19;7.03;;;5.20;;
15155;SDS011;7678;50.058;8.306;2023-06-10T09:40:48;5.57;;;5.07;;
15155;SDS011;7678;50.058;8.306;2023-06-10T09:43:18;5.73;;;5.17;;
15155;SDS011;7678;50.058;8.306;2023-06-10T09:45:47;5.37;;;4.87;;
15155;SDS011;7678;50.058;8.306;2023-06-10T09:48:16;7.93;;;5.30;;
15155;SDS011;7678;50.058;8.306;2023-06-10T09:50:44;9.73;;;4.93;;
15155;SDS011;7678;50.058;8.306;2023-06-10T09:53:13;5.30;;;4.80;;
15155;SDS011;7678;50.058;8.306;2023-06-10T09:55:45;7.07;;;5.20;;
15155;SDS011;7678;50.058;8.306;2023-06-10T09:58:14;6.77;;;5.20;;
15155;SDS011;7678;50.058;8.306;2023-06-10T10:00:42;6.40;;;4.93;;
15155;SDS011;7678;50.058;8.306;2023-06-10T10:03:10;7.53;;;4.90;;
15155;SDS011;7678;50.058;8.306;2023-06-10T10:05:55;8.60;;;4.97;;
15155;SDS011;7678;50.058;8.306;2023-06-10T10:08:27;8.10;;;5.13;;
15155;SDS011;7678;50.058;8.306;2023-06-10T10:10:57;5.33;;;4.77;;
15155;SDS011;7678;50.058;8.306;2023-06-10T10:13:29;8.83;;;5.37;;
15155;SDS011;7678;50.058;8.306;2023-06-10T10:16:03;5.60;;;4.77;;
15155;SDS011;7678;50.058;8.306;2023-06-10T10:18:38;7.93;;;4.87;;
15155;SDS011;7678;50.058;8.306;2023-06-10T10:21:11;8.60;;;4.57;;
15155;SDS011;7678;50.058;8.306;2023-06-10T10:23:42;6.70;;;4.43;;
15155;SDS011;7678;50.058;8.306;2023-06-10T10:26:20;5.27;;;4.73;;
15155;SDS011;7678;50.058;8.306;2023-06-10T10:28:51;7.17;;;4.90;;
15155;SDS011;7678;50.058;8.306;2023-06-10T10:31:25;4.93;;;4.40;;
15155;SDS011;7678;50.058;8.306;2023-06-10T10:33:58;4.93;;;4.53;;
15155;SDS011;7678;50.058;8.306;2023-06-10T10:36:28;7.20;;;4.90;;
15155;SDS011;7678;50.058;8.306;2023-06-10T10:38:58;5.90;;;4.67;;
15155;SDS011;7678;50.058;8.306;2023-06-10T10:41:37;5.67;;;4.67;;
15155;SDS011;7678;50.058;8.306;2023-06-10T10:44:06;6.23;;;4.73;;
15155;SDS011;7678;50.058;8.306;2023-06-10T10:46:41;5.33;;;4.80;;
15155;SDS011;7678;50.058;8.306;2023-06-10T10:49:10;6.03;;;4.60;;
15155;SDS011;7678;50.058;8.306;2023-06-10T10:51:57;5.03;;;4.53;;
15155;SDS011;7678;50.058;8.306;2023-06-10T10:54:29;7.03;;;3.93;;
15155;SDS011;7678;50.058;8.306;2023-06-10T10:57:11;5.97;;;4.80;;
15155;SDS011;7678;50.058;8.306;2023-06-10T11:02:43;8.83;;;4.47;;
15155;SDS011;7678;50.058;8.306;2023-06-10T11:05:45;4.60;;;4.10;;
15155;SDS011;7678;50.058;8.306;2023-06-10T11:11:33;5.63;;;4.20;;
15155;SDS011;7678;50.058;8.306;2023-06-10T11:14:49;4.77;;;3.97;;
15155;SDS011;7678;50.058;8.306;2023-06-10T11:17:48;4.20;;;3.80;;
15155;SDS011;7678;50.058;8.306;2023-06-10T11:20:59;4.47;;;4.10;;
15155;SDS011;7678;50.058;8.306;2023-06-10T11:26:20;8.07;;;4.20;;
15155;SDS011;7678;50.058;8.306;2023-06-10T11:29:06;5.47;;;4.00;;
15155;SDS011;7678;50.058;8.306;2023-06-10T11:31:39;4.20;;;3.80;;
15155;SDS011;7678;50.058;8.306;2023-06-10T11:34:09;5.82;;;3.83;;
15155;SDS011;7678;50.058;8.306;2023-06-10T11:36:39;6.13;;;4.10;;
15155;SDS011;7678;50.058;8.306;2023-06-10T11:39:09;4.40;;;4.00;;
15155;SDS011;7678;50.058;8.306;2023-06-10T11:41:38;4.05;;;3.65;;
15155;SDS011;7678;50.058;8.306;2023-06-10T11:44:10;4.72;;;3.80;;
15155;SDS011;7678;50.058;8.306;2023-06-10T11:46:47;12.00;;;4.50;;
15155;SDS011;7678;50.058;8.306;2023-06-10T11:49:16;12.85;;;4.40;;
15155;SDS011;7678;50.058;8.306;2023-06-10T11:51:45;7.30;;;3.92;;
15155;SDS011;7678;50.058;8.306;2023-06-10T11:54:18;4.38;;;3.97;;
15155;SDS011;7678;50.058;8.306;2023-06-10T11:56:56;4.20;;;3.65;;
15155;SDS011;7678;50.058;8.306;2023-06-10T11:59:28;5.18;;;3.50;;
15155;SDS011;7678;50.058;8.306;2023-06-10T12:01:59;4.90;;;3.38;;
15155;SDS011;7678;50.058;8.306;2023-06-10T12:04:27;4.47;;;3.55;;
15155;SDS011;7678;50.058;8.306;2023-06-10T12:06:55;3.63;;;3.28;;
15155;SDS011;7678;50.058;8.306;2023-06-10T12:09:24;6.63;;;3.33;;
15155;SDS011;7678;50.058;8.306;2023-06-10T12:11:55;5.30;;;3.50;;
15155;SDS011;7678;50.058;8.306;2023-06-10T12:14:50;4.15;;;3.30;;
15155;SDS011;7678;50.058;8.306;2023-06-10T12:17:23;7.13;;;3.65;;
15155;SDS011;7678;50.058;8.306;2023-06-10T12:20:05;6.40;;;4.00;;
15155;SDS011;7678;50.058;8.306;2023-06-10T12:22:35;4.63;;;3.83;;
15155;SDS011;7678;50.058;8.306;2023-06-10T12:25:05;3.55;;;3.25;;
15155;SDS011;7678;50.058;8.306;2023-06-10T12:27:35;5.38;;;3.60;;
15155;SDS011;7678;50.058;8.306;2023-06-10T12:30:04;3.35;;;3.05;;
15155;SDS011;7678;50.058;8.306;2023-06-10T12:32:36;5.20;;;3.25;;
15155;SDS011;7678;50.058;8.306;2023-06-10T12:35:08;5.60;;;3.35;;
15155;SDS011;7678;50.058;8.306;2023-06-10T12:37:39;3.40;;;3.08;;
15155;SDS011;7678;50.058;8.306;2023-06-10T12:40:11;5.30;;;3.40;;
15155;SDS011;7678;50.058;8.306;2023-06-10T12:42:40;5.50;;;3.03;;
15155;SDS011;7678;50.058;8.306;2023-06-10T12:45:09;2.97;;;2.70;;
15155;SDS011;7678;50.058;8.306;2023-06-10T12:47:41;3.97;;;3.28;;
15155;SDS011;7678;50.058;8.306;2023-06-10T12:50:11;4.28;;;3.47;;
15155;SDS011;7678;50.058;8.306;2023-06-10T12:52:39;4.78;;;3.25;;
15155;SDS011;7678;50.058;8.306;2023-06-10T12:55:08;8.18;;;3.40;;
15155;SDS011;7678;50.058;8.306;2023-06-10T12:57:46;6.30;;;3.20;;
15155;SDS011;7678;50.058;8.306;2023-06-10T13:00:16;5.53;;;3.47;;
15155;SDS011;7678;50.058;8.306;2023-06-10T13:02:47;4.20;;;3.25;;
15155;SDS011;7678;50.058;8.306;2023-06-10T13:05:19;8.13;;;3.60;;
15155;SDS011;7678;50.058;8.306;2023-06-10T13:07:48;3.42;;;3.13;;
15155;SDS011;7678;50.058;8.306;2023-06-10T13:10:16;3.25;;;2.95;;
15155;SDS011;7678;50.058;8.306;2023-06-10T13:12:50;4.45;;;3.28;;
15155;SDS011;7678;50.058;8.306;2023-06-10T13:15:19;6.38;;;3.40;;
15155;SDS011;7678;50.058;8.306;2023-06-10T13:17:48;5.47;;;3.63;;
15155;SDS011;7678;50.058;8.306;2023-06-10T13:20:17;3.80;;;3.50;;
15155;SDS011;7678;50.058;8.306;2023-06-10T13:22:47;4.60;;;3.10;;
15155;SDS011;7678;50.058;8.306;2023-06-10T13:25:18;5.00;;;3.50;;
15155;SDS011;7678;50.058;8.306;2023-06-10T13:27:46;5.65;;;3.30;;
15155;SDS011;7678;50.058;8.306;2023-06-10T13:30:16;5.47;;;3.50;;
15155;SDS011;7678;50.058;8.306;2023-06-10T13:32:44;5.82;;;3.33;;
15155;SDS011;7678;50.058;8.306;2023-06-10T13:35:13;5.05;;;3.35;;
15155;SDS011;7678;50.058;8.306;2023-06-10T13:37:41;6.43;;;3.90;;
15155;SDS011;7678;50.058;8.306;2023-06-10T13:40:12;6.13;;;3.65;;
15155;SDS011;7678;50.058;8.306;2023-06-10T13:42:40;4.40;;;3.70;;
15155;SDS011;7678;50.058;8.306;2023-06-10T13:45:09;4.18;;;3.60;;
15155;SDS011;7678;50.058;8.306;2023-06-10T13:47:37;6.57;;;3.72;;
15155;SDS011;7678;50.058;8.306;2023-06-10T13:50:06;5.28;;;3.90;;
15155;SDS011;7678;50.058;8.306;2023-06-10T13:52:36;5.40;;;3.55;;
15155;SDS011;7678;50.058;8.306;2023-06-10T13:55:05;5.10;;;3.50;;
15155;SDS011;7678;50.058;8.306;2023-06-10T13:57:33;4.47;;;4.07;;
15155;SDS011;7678;50.058;8.306;2023-06-10T14:00:03;6.95;;;3.75;;
15155;SDS011;7678;50.058;8.306;2023-06-10T14:02:33;6.57;;;3.88;;
15155;SDS011;7678;50.058;8.306;2023-06-10T14:05:01;4.55;;;3.78;;
15155;SDS011;7678;50.058;8.306;2023-06-10T14:07:29;3.80;;;3.35;;
15155;SDS011;7678;50.058;8.306;2023-06-10T14:10:00;5.25;;;3.85;;
15155;SDS011;7678;50.058;8.306;2023-06-10T14:12:28;4.88;;;3.75;;
15155;SDS011;7678;50.058;8.306;2023-06-10T14:14:57;6.10;;;3.85;;
15155;SDS011;7678;50.058;8.306;2023-06-10T14:17:25;5.03;;;3.50;;
15155;SDS011;7678;50.058;8.306;2023-06-10T14:19:53;5.03;;;4.15;;
15155;SDS011;7678;50.058;8.306;2023-06-10T14:22:21;5.10;;;3.47;;
15155;SDS011;7678;50.058;8.306;2023-06-10T14:24:49;3.92;;;3.45;;
15155;SDS011;7678;50.058;8.306;2023-06-10T14:27:21;5.35;;;3.75;;
15155;SDS011;7678;50.058;8.306;2023-06-10T14:29:49;4.05;;;3.70;;
15155;SDS011;7678;50.058;8.306;2023-06-10T14:32:17;5.00;;;3.63;;
15155;SDS011;7678;50.058;8.306;2023-06-10T14:34:49;6.45;;;3.67;;
15155;SDS011;7678;50.058;8.306;2023-06-10T14:37:17;4.28;;;3.88;;
15155;SDS011;7678;50.058;8.306;2023-06-10T14:39:45;4.00;;;3.60;;
15155;SDS011;7678;50.058;8.306;2023-06-10T14:42:13;4.43;;;3.80;;
15155;SDS011;7678;50.058;8.306;2023-06-10T14:44:42;4.25;;;3.67;;
15155;SDS011;7678;50.058;8.306;2023-06-10T14:47:10;8.70;;;3.90;;
15155;SDS011;7678;50.058;8.306;2023-06-10T14:49:38;4.35;;;3.95;;
15155;SDS011;7678;50.058;8.306;2023-06-10T14:52:08;3.85;;;3.55;;
15155;SDS011;7678;50.058;8.306;2023-06-10T14:54:36;5.18;;;4.10;;
15155;SDS011;7678;50.058;8.306;2023-06-10T14:57:06;3.97;;;3.58;;
15155;SDS011;7678;50.058;8.306;2023-06-10T14:59:34;5.82;;;3.67;;
15155;SDS011;7678;50.058;8.306;2023-06-10T15:02:04;5.05;;;3.67;;
15155;SDS011;7678;50.058;8.306;2023-06-10T15:04:33;3.75;;;3.40;;
15155;SDS011;7678;50.058;8.306;2023-06-10T15:07:01;4.53;;;3.30;;
15155;SDS011;7678;50.058;8.306;2023-06-10T15:09:29;4.40;;;3.00;;
15155;SDS011;7678;50.058;8.306;2023-06-10T15:11:58;12.23;;;4.40;;
15155;SDS011;7678;50.058;8.306;2023-06-10T15:14:32;3.55;;;3.15;;
15155;SDS011;7678;50.058;8.306;2023-06-10T15:17:00;3.40;;;3.10;;
15155;SDS011;7678;50.058;8.306;2023-06-10T15:19:30;4.03;;;2.95;;
15155;SDS011;7678;50.058;8.306;2023-06-10T15:21:59;5.25;;;2.95;;
15155;SDS011;7678;50.058;8.306;2023-06-10T15:24:27;3.33;;;3.03;;
15155;SDS011;7678;50.058;8.306;2023-06-10T15:26:57;3.22;;;2.92;;
15155;SDS011;7678;50.058;8.306;2023-06-10T15:29:25;4.88;;;2.63;;
15155;SDS011;7678;50.058;8.306;2023-06-10T15:31:54;4.20;;;2.95;;
15155;SDS011;7678;50.058;8.306;2023-06-10T15:34:22;3.55;;;2.90;;
15155;SDS011;7678;50.058;8.306;2023-06-10T15:36:52;4.30;;;2.83;;
15155;SDS011;7678;50.058;8.306;2023-06-10T15:39:22;3.58;;;2.75;;
15155;SDS011;7678;50.058;8.306;2023-06-10T15:41:59;4.20;;;2.97;;
15155;SDS011;7678;50.058;8.306;2023-06-10T15:44:40;3.08;;;2.72;;
15155;SDS011;7678;50.058;8.306;2023-06-10T15:47:19;5.97;;;3.10;;
15155;SDS011;7678;50.058;8.306;2023-06-10T15:49:47;4.05;;;2.83;;
15155;SDS011;7678;50.058;8.306;2023-06-10T15:52:17;6.40;;;3.20;;
15155;SDS011;7678;50.058;8.306;2023-06-10T15:54:48;4.15;;;2.90;;
15155;SDS011;7678;50.058;8.306;2023-06-10T15:57:16;7.47;;;3.05;;